Time;durP1;ratioP1;P1;durP2;ratioP2;P2;SDS_P1;SDS_P2;PMS_P1;PMS_P2;Temp;Humidity;BMP_temperature;BMP_pressure;BME280_temperature;BME280_humidity;BME280_pressure;Samples;Min_cycle;Max_cycle;Signal;HPM_P1;HPM_P2
2022/09/17 07:44:01;;;;;;;8.45;1.15;;;;;;;16.69;55.35;101672.25;6135235;23;20039;-37
2022/09/17 07:46:26;;;;;;;5.38;0.80;;;;;;;16.26;55.59;101673.00;6141403;23;20495;-35
2022/09/17 07:48:56;;;;;;;2.75;0.70;;;;;;;16.07;56.65;101672.94;6141210;23;20024;-38
2022/09/17 07:51:24;;;;;;;5.53;0.85;;;;;;;15.49;56.50;101679.63;6132628;23;20461;-36
2022/09/17 07:53:54;;;;;;;4.60;0.80;;;;;;;15.43;59.68;101669.09;6128644;23;20200;-37
2022/09/17 07:56:21;;;;;;;5.65;1.00;;;;;;;15.35;60.30;101676.94;6138105;23;20148;-36
2022/09/17 07:58:46;;;;;;;6.55;0.60;;;;;;;14.91;61.97;101673.97;6144381;23;20307;-36
2022/09/17 08:01:16;;;;;;;5.72;0.75;;;;;;;14.77;62.38;101672.97;6127569;23;20100;-35
2022/09/17 08:03:47;;;;;;;8.25;1.27;;;;;;;14.93;62.03;101671.38;6140271;23;20013;-36
2022/09/17 08:06:16;;;;;;;5.47;0.90;;;;;;;15.26;62.33;101663.72;6138048;23;20040;-37
2022/09/17 08:08:41;;;;;;;3.70;0.70;;;;;;;15.21;62.38;101667.19;6140174;23;20083;-37
2022/09/17 08:11:09;;;;;;;4.45;1.13;;;;;;;15.66;61.86;101659.63;6135009;23;20007;-37
2022/09/17 08:13:35;;;;;;;6.18;0.88;;;;;;;15.95;59.79;101654.50;6134182;23;20013;-36
2022/09/17 08:16:09;;;;;;;4.65;0.90;;;;;;;16.33;59.50;101643.22;6127871;23;20332;-36
2022/09/17 08:18:35;;;;;;;5.97;1.00;;;;;;;16.15;58.46;101668.59;6091925;23;20017;-35
2022/09/17 08:21:03;;;;;;;6.63;1.30;;;;;;;16.27;60.14;101674.78;6113590;23;20013;-37
2022/09/17 08:23:29;;;;;;;5.28;0.95;;;;;;;15.70;61.77;101677.19;6140579;23;20013;-37
2022/09/17 08:26:01;;;;;;;6.18;0.98;;;;;;;15.89;63.51;101677.25;6123123;23;20099;-37
2022/09/17 08:28:29;;;;;;;7.57;1.08;;;;;;;15.81;63.43;101679.84;6135168;23;20100;-37
2022/09/17 08:31:03;;;;;;;7.13;1.10;;;;;;;15.65;64.28;101678.91;6131635;23;20013;-37
2022/09/17 08:33:33;;;;;;;9.10;1.20;;;;;;;15.63;64.43;101682.38;6133369;23;20020;-38
2022/09/17 08:35:59;;;;;;;9.05;1.33;;;;;;;15.76;64.71;101677.22;6110194;23;20104;-38
2022/09/17 08:38:31;;;;;;;10.07;1.15;;;;;;;15.85;64.56;101686.03;6140022;23;20842;-37
2022/09/17 08:41:11;;;;;;;5.32;0.80;;;;;;;16.45;60.86;101674.81;6135002;23;20387;-36
2022/09/17 08:43:53;;;;;;;8.65;0.93;;;;;;;16.18;58.31;101678.25;6157865;22;20028;-38
2022/09/17 08:46:20;;;;;;;5.40;0.73;;;;;;;16.59;58.66;101668.72;6168340;23;20016;-38
2022/09/17 08:49:30;;;;;;;3.30;0.85;;;;;;;16.67;58.21;101674.00;6161570;23;20020;-39
2022/09/17 08:52:19;;;;;;;3.25;0.70;;;;;;;16.54;55.83;101670.44;6168069;23;20093;-36
2022/09/17 08:54:56;;;;;;;3.53;0.68;;;;;;;17.07;54.30;101676.66;6160780;23;20071;-37
2022/09/17 08:57:34;;;;;;;6.97;0.80;;;;;;;16.93;54.65;101674.91;6167452;23;20043;-37
2022/09/17 09:00:09;;;;;;;4.15;0.70;;;;;;;16.86;55.29;101674.91;6141253;23;20023;-36
2022/09/17 09:02:49;;;;;;;4.22;0.75;;;;;;;17.00;54.07;101676.66;6169262;22;20012;-38
2022/09/17 09:05:20;;;;;;;7.65;1.08;;;;;;;17.07;55.48;101672.28;6172709;23;20048;-37
2022/09/17 09:07:55;;;;;;;9.02;0.88;;;;;;;16.73;55.85;101687.16;6152857;23;20016;-37
2022/09/17 09:10:23;;;;;;;7.15;0.85;;;;;;;16.98;57.05;101680.16;6157257;23;20555;-36
2022/09/17 09:12:51;;;;;;;6.13;0.90;;;;;;;16.56;56.78;101681.84;6165494;23;20016;-37
2022/09/17 09:15:48;;;;;;;8.55;0.95;;;;;;;16.96;57.19;101681.91;6161485;23;20034;-37
2022/09/17 09:18:29;;;;;;;6.35;0.98;;;;;;;17.25;57.67;101674.88;6164238;23;20409;-38
2022/09/17 09:21:27;;;;;;;4.60;0.90;;;;;;;17.47;55.70;101674.84;6165440;22;20008;-37
2022/09/17 09:24:04;;;;;;;9.10;0.90;;;;;;;17.40;57.41;101680.13;6145155;23;20028;-37
2022/09/17 09:26:49;;;;;;;5.20;0.93;;;;;;;17.54;57.86;101680.09;6170421;23;20943;-38
2022/09/17 09:29:22;;;;;;;7.10;0.90;;;;;;;17.08;58.51;101678.44;6168751;23;20079;-38
2022/09/17 09:31:51;;;;;;;;;;;;;;;16.85;58.89;101687.19;6153977;23;20928;-37
2022/09/17 09:34:17;;;;;;;4.38;0.77;;;;;;;17.14;58.94;101688.97;6188944;23;20625;-37
2022/09/17 09:36:43;;;;;;;5.53;0.82;;;;;;;17.22;58.46;101687.16;6154730;22;20008;-37
2022/09/17 09:39:24;;;;;;;7.53;1.02;;;;;;;17.04;58.45;101681.03;6167414;23;20338;-37
2022/09/17 09:41:58;;;;;;;8.40;1.00;;;;;;;17.00;57.90;101684.56;6163180;23;20004;-38
2022/09/17 09:44:24;;;;;;;8.77;0.90;;;;;;;17.44;57.11;101678.38;6170758;22;20016;-37
2022/09/17 09:47:18;;;;;;;7.05;1.00;;;;;;;17.69;58.40;101680.06;6156986;23;20008;-36
2022/09/17 09:50:04;;;;;;;10.75;1.23;;;;;;;17.42;56.54;101681.00;6159645;23;20021;-37
2022/09/17 09:52:35;;;;;;;5.55;0.80;;;;;;;17.52;54.79;101679.22;6167613;23;20054;-37
2022/09/17 09:55:21;;;;;;;5.95;1.13;;;;;;;18.01;54.69;101669.41;6165546;23;20340;-37
2022/09/17 09:57:54;;;;;;;11.07;1.08;;;;;;;18.06;52.77;101677.28;6167274;23;20016;-37
2022/09/17 10:00:38;;;;;;;6.65;1.10;;;;;;;18.49;49.62;101673.53;6155604;23;20384;-37
2022/09/17 10:03:09;;;;;;;11.27;1.38;;;;;;;18.38;48.43;101683.28;6169287;23;20008;-36
2022/09/17 10:05:35;;;;;;;8.32;1.45;;;;;;;18.56;52.24;101693.78;6165767;23;20349;-38
2022/09/17 10:08:11;;;;;;;6.93;1.30;;;;;;;18.08;56.85;101689.63;6158154;23;20013;-38
2022/09/17 10:10:53;;;;;;;10.27;1.60;;;;;;;17.36;57.10;101688.94;6193315;22;20554;-37
2022/09/17 10:13:19;;;;;;;8.20;1.30;;;;;;;17.72;56.30;101698.53;6169084;23;20074;-36
2022/09/17 10:15:44;;;;;;;9.32;1.65;;;;;;;17.48;58.36;101717.03;6166765;23;20012;-41
2022/09/17 10:18:21;;;;;;;8.23;1.40;;;;;;;16.49;59.22;101710.78;6162394;23;20013;-35
2022/09/17 10:20:51;;;;;;;9.32;1.30;;;;;;;15.87;59.79;101713.19;6191409;23;20028;-36
2022/09/17 10:23:16;;;;;;;4.63;0.98;;;;;;;16.27;58.22;101704.59;6166381;23;20009;-36
2022/09/17 10:25:45;;;;;;;5.25;0.90;;;;;;;16.26;56.10;101705.47;6157686;23;20578;-36
2022/09/17 10:28:42;;;;;;;6.05;1.38;;;;;;;16.36;60.05;101696.72;6170165;23;20013;-36
2022/09/17 10:31:09;;;;;;;6.32;1.20;;;;;;;16.43;57.46;101695.88;6151109;23;20012;-35
2022/09/17 10:33:39;;;;;;;6.32;1.00;;;;;;;16.47;58.01;101687.09;6166917;22;20107;-37
2022/09/17 10:36:07;;;;;;;7.32;1.10;;;;;;;16.79;58.00;101694.19;6159549;23;20008;-37
2022/09/17 10:38:36;;;;;;;6.50;1.10;;;;;;;17.04;56.59;101690.69;6168133;23;20019;-37
2022/09/17 10:41:12;;;;;;;11.70;1.75;;;;;;;16.94;57.42;101678.41;6185177;23;20008;-37
2022/09/17 10:43:38;;;;;;;11.88;1.75;;;;;;;17.31;54.55;101674.88;6169324;23;20111;-36
2022/09/17 10:46:03;;;;;;;10.05;1.58;;;;;;;17.42;55.16;101685.41;6145068;23;20493;-37
2022/09/17 10:49:04;;;;;;;11.68;1.77;;;;;;;17.11;54.91;101681.91;6167403;23;20720;-36
2022/09/17 10:51:31;;;;;;;9.95;1.58;;;;;;;17.18;56.18;101691.59;6139555;23;20701;-36
2022/09/17 10:54:02;;;;;;;10.15;1.42;;;;;;;16.86;55.50;101693.31;6160339;23;20391;-38
2022/09/17 10:56:38;;;;;;;10.43;1.83;;;;;;;17.00;53.44;101688.94;6171301;23;20751;-36
2022/09/17 10:59:21;;;;;;;10.32;1.48;;;;;;;17.05;53.55;101681.94;6171403;23;20044;-37
2022/09/17 11:02:06;;;;;;;13.32;1.55;;;;;;;17.55;54.51;101684.50;6149092;23;20051;-37
2022/09/17 11:04:43;;;;;;;12.85;1.50;;;;;;;17.74;52.77;101682.72;6169584;23;20015;-36
2022/09/17 11:07:17;;;;;;;10.88;1.27;;;;;;;17.84;48.93;101679.16;6167249;23;20051;-37
2022/09/17 11:10:04;;;;;;;8.75;1.25;;;;;;;17.78;45.04;101666.00;6161398;23;20047;-37
2022/09/17 11:12:49;;;;;;;7.25;1.40;;;;;;;18.15;45.58;101670.22;6157361;23;20070;-37
2022/09/17 11:15:17;;;;;;;12.18;1.63;;;;;;;18.22;45.54;101676.34;6170322;23;20325;-38
2022/09/17 11:17:48;;;;;;;9.90;1.40;;;;;;;18.44;44.83;101655.97;6161006;23;20017;-37
2022/09/17 11:20:35;;;;;;;10.18;1.27;;;;;;;18.60;45.60;101669.09;6165034;23;20067;-38
2022/09/17 11:23:31;;;;;;;7.88;1.33;;;;;;;18.99;45.02;101667.91;6140901;23;20237;-37
2022/09/17 11:26:04;;;;;;;10.93;1.77;;;;;;;18.47;45.65;101679.72;6151925;23;20024;-37
2022/09/17 11:28:40;;;;;;;12.65;2.05;;;;;;;18.18;47.05;101672.84;6172852;23;20098;-36
2022/09/17 11:31:23;;;;;;;9.50;1.48;;;;;;;17.93;46.45;101675.63;6160729;22;20024;-37
2022/09/17 11:34:13;;;;;;;17.05;1.60;;;;;;;18.55;46.85;101672.66;6163100;23;20038;-37
2022/09/17 11:36:50;;;;;;;12.30;1.40;;;;;;;18.27;44.86;101671.94;6162438;23;20008;-38
2022/09/17 11:39:24;;;;;;;8.43;1.30;;;;;;;18.47;44.25;101685.00;6145554;23;20024;-38
2022/09/17 11:41:52;;;;;;;17.55;1.80;;;;;;;18.25;43.90;101693.03;6161249;23;20008;-35
2022/09/17 11:44:46;;;;;;;13.27;1.67;;;;;;;18.26;44.21;101699.19;6166809;23;20095;-37
2022/09/17 11:47:21;;;;;;;14.32;2.05;;;;;;;17.79;47.16;101700.28;6163862;23;20369;-36
2022/09/17 11:49:59;;;;;;;13.35;1.85;;;;;;;17.42;48.35;101702.09;6153054;23;20088;-36
2022/09/17 11:52:58;;;;;;;14.25;1.90;;;;;;;17.62;49.77;101691.56;6148917;23;20063;-36
2022/09/17 11:55:33;;;;;;;12.65;1.92;;;;;;;17.68;50.37;101678.34;6164760;23;20016;-37
2022/09/17 11:58:06;;;;;;;12.82;1.83;;;;;;;18.19;49.61;101679.00;6159870;23;20058;-37
2022/09/17 12:00:38;;;;;;;14.52;1.83;;;;;;;18.06;50.10;101682.56;6160668;22;20013;-36
2022/09/17 12:03:12;;;;;;;12.45;1.63;;;;;;;17.79;43.27;101680.94;6144458;23;20431;-36
2022/09/17 12:05:53;;;;;;;9.50;1.38;;;;;;;17.81;40.95;101693.22;6160316;23;20082;-36
2022/09/17 12:08:25;;;;;;;6.97;1.20;;;;;;;18.12;39.76;101686.06;6130161;23;20335;-36
2022/09/17 12:11:13;;;;;;;5.95;1.13;;;;;;;18.24;36.66;101659.59;6166553;23;20059;-36
2022/09/17 12:13:51;;;;;;;5.50;0.90;;;;;;;18.60;39.47;101684.09;6172754;22;20079;-35
2022/09/17 12:16:20;;;;;;;9.82;1.40;;;;;;;18.59;39.39;101679.69;6161478;23;20087;-35
2022/09/17 12:19:00;;;;;;;11.13;1.40;;;;;;;18.81;39.84;101680.41;6161684;23;20095;-35
2022/09/17 12:21:41;;;;;;;10.20;1.30;;;;;;;18.97;39.96;101666.16;6144282;23;20016;-37
2022/09/17 12:24:29;;;;;;;14.32;1.50;;;;;;;18.87;41.67;101696.19;6155817;23;20501;-35
2022/09/17 12:27:19;;;;;;;14.30;1.80;;;;;;;18.72;41.79;101684.00;6170991;23;20040;-37
2022/09/17 12:29:59;;;;;;;11.48;1.38;;;;;;;18.53;41.10;101692.91;6146459;23;20044;-37
2022/09/17 12:32:38;;;;;;;11.05;1.63;;;;;;;19.02;38.73;101683.75;6170645;23;20007;-36
2022/09/17 12:35:16;;;;;;;9.48;1.30;;;;;;;18.92;39.95;101689.13;6171685;23;20012;-36
2022/09/17 12:37:58;;;;;;;14.00;1.67;;;;;;;18.83;39.82;101690.06;6159801;23;20032;-36
2022/09/17 12:40:41;;;;;;;9.43;1.17;;;;;;;19.06;38.43;101687.25;6143006;23;20632;-37
2022/09/17 12:43:27;;;;;;;11.82;1.40;;;;;;;19.19;36.88;101688.00;6166133;23;20495;-35
2022/09/17 12:46:25;;;;;;;6.57;1.10;;;;;;;19.10;38.69;101683.66;6159057;23;20020;-37
2022/09/17 12:49:18;;;;;;;9.98;1.48;;;;;;;18.97;37.78;101682.91;6140569;23;20068;-36
2022/09/17 12:52:02;;;;;;;11.38;1.30;;;;;;;19.04;38.55;101681.09;6141868;23;20055;-39
2022/09/17 12:54:39;;;;;;;9.60;1.30;;;;;;;18.77;39.22;101689.25;6161516;23;20012;-36
2022/09/17 12:57:17;;;;;;;6.28;1.23;;;;;;;18.84;38.49;101689.19;6164782;23;20401;-36
2022/09/17 12:59:59;;;;;;;6.85;1.20;;;;;;;19.02;39.70;101689.03;6161201;23;20587;-37
2022/09/17 13:02:32;;;;;;;9.82;1.90;;;;;;;18.98;40.37;101681.13;6154563;23;20425;-36
2022/09/17 13:05:27;;;;;;;10.68;1.55;;;;;;;19.46;40.98;101666.59;6157470;23;20519;-36
2022/09/17 13:08:02;;;;;;;;;;;;;;;19.35;42.18;101693.13;6159329;23;20494;-37
2022/09/17 13:10:38;;;;;;;9.13;1.50;;;;;;;18.90;41.67;101681.22;6135925;23;20318;-37
2022/09/17 13:13:44;;;;;;;17.02;1.80;;;;;;;19.17;42.06;101681.84;6170305;23;20330;-36
2022/09/17 13:17:03;;;;;;;8.18;1.42;;;;;;;19.31;41.86;101679.97;6166066;23;20013;-37
2022/09/17 13:19:43;;;;;;;11.32;1.80;;;;;;;19.39;42.19;101686.91;6106752;23;20017;-36
2022/09/17 13:22:14;;;;;;;8.43;1.60;;;;;;;18.54;41.81;101689.38;6161696;23;20035;-36
2022/09/17 13:24:40;;;;;;;10.30;1.67;;;;;;;18.12;40.62;101686.06;6166442;23;20005;-37
2022/09/17 13:27:20;;;;;;;9.90;1.55;;;;;;;19.02;39.10;101683.75;6169228;23;20016;-36
2022/09/17 13:29:46;;;;;;;12.45;1.33;;;;;;;19.33;40.66;101688.78;6160994;23;20015;-38
2022/09/17 13:32:33;;;;;;;14.38;2.00;;;;;;;19.57;40.68;101670.03;6164978;23;20021;-38
2022/09/17 13:35:11;;;;;;;9.32;1.38;;;;;;;19.94;42.50;101680.19;6161532;23;20368;-38
2022/09/17 13:37:51;;;;;;;11.85;1.98;;;;;;;19.83;40.44;101680.28;6170014;23;20325;-38
2022/09/17 13:40:35;;;;;;;13.55;1.88;;;;;;;19.72;41.60;101695.44;6170722;23;20713;-38
2022/09/17 13:43:04;;;;;;;13.35;1.73;;;;;;;19.51;42.84;101693.03;6172974;23;20095;-38
2022/09/17 13:45:32;;;;;;;11.88;1.70;;;;;;;19.97;43.24;101681.00;6161529;23;20019;-39
2022/09/17 13:48:01;;;;;;;11.88;1.60;;;;;;;19.49;44.29;101697.44;6166013;23;20107;-38
2022/09/17 13:50:38;;;;;;;13.93;2.13;;;;;;;19.41;48.16;101694.84;6166202;23;20126;-38
2022/09/17 13:53:13;;;;;;;11.00;2.05;;;;;;;19.56;48.02;101699.13;6169452;23;20020;-38
2022/09/17 13:55:48;;;;;;;13.13;1.88;;;;;;;19.41;45.68;101708.94;6171313;23;20012;-37
2022/09/17 13:58:19;;;;;;;13.30;2.28;;;;;;;19.55;47.22;101700.03;6157933;23;20106;-37
2022/09/17 14:01:26;;;;;;;15.13;1.80;;;;;;;19.14;47.21;101706.56;6169812;23;20011;-38
2022/09/17 14:03:52;;;;;;;14.90;1.95;;;;;;;19.11;49.81;101701.28;6104150;23;20032;-38
2022/09/17 14:06:19;;;;;;;12.50;1.95;;;;;;;18.97;47.55;101703.16;6170362;23;20043;-38
2022/09/17 14:08:48;;;;;;;15.40;2.03;;;;;;;18.71;46.56;101702.50;6162187;23;20027;-38
2022/09/17 14:11:20;;;;;;;14.35;1.90;;;;;;;18.69;44.35;101706.91;6171670;23;20004;-37
2022/09/17 14:13:48;;;;;;;15.05;2.08;;;;;;;18.59;44.05;101691.13;6167218;23;20019;-38
2022/09/17 14:16:34;;;;;;;13.52;1.70;;;;;;;18.67;44.01;101698.09;6165284;23;20717;-37
2022/09/17 14:19:14;;;;;;;10.27;1.52;;;;;;;18.42;42.80;101700.84;6141998;23;20008;-37
2022/09/17 14:22:04;;;;;;;10.02;1.25;;;;;;;18.76;42.23;101705.97;6164611;23;20444;-37
2022/09/17 14:24:36;;;;;;;9.45;1.70;;;;;;;18.36;40.58;101706.19;6145278;23;20016;-38
2022/09/17 14:27:32;;;;;;;10.82;1.50;;;;;;;18.22;39.52;101703.63;6164477;22;20012;-39
2022/09/17 14:30:21;;;;;;;13.50;1.77;;;;;;;18.49;39.70;101707.88;6154433;23;20062;-37
2022/09/17 14:32:50;;;;;;;9.38;1.60;;;;;;;17.94;40.52;101717.81;6186526;23;20009;-38
2022/09/17 14:35:15;;;;;;;7.80;1.48;;;;;;;19.02;40.22;101714.59;6169729;23;20108;-38
2022/09/17 14:37:44;;;;;;;7.30;1.30;;;;;;;18.68;40.01;101715.72;6168735;23;20092;-38
2022/09/17 14:40:16;;;;;;;6.70;1.15;;;;;;;18.64;38.87;101709.59;6158613;23;20301;-37
2022/09/17 14:42:43;;;;;;;5.70;1.20;;;;;;;18.82;38.92;101714.75;6167225;22;20402;-38
2022/09/17 14:45:25;;;;;;;12.27;1.60;;;;;;;18.81;38.81;101707.69;6162908;22;20017;-37
2022/09/17 14:48:24;;;;;;;13.32;1.75;;;;;;;18.37;41.14;101701.78;6164576;23;20521;-41
2022/09/17 14:50:50;;;;;;;10.35;1.55;;;;;;;17.88;41.50;101704.63;6163026;22;20027;-39
2022/09/17 14:53:18;;;;;;;13.13;1.45;;;;;;;17.93;40.96;101702.84;6176549;23;20001;-37
2022/09/17 14:55:49;;;;;;;8.98;1.52;;;;;;;17.98;42.02;101698.47;6166885;23;20035;-38
2022/09/17 14:58:28;;;;;;;10.80;2.00;;;;;;;18.58;41.75;101702.56;6156439;23;20495;-38
2022/09/17 15:00:54;;;;;;;11.63;1.38;;;;;;;18.18;42.56;101701.00;6166957;23;20428;-37
2022/09/17 15:03:21;;;;;;;9.98;1.85;;;;;;;18.22;43.21;101706.28;6161916;23;20012;-38
2022/09/17 15:05:49;;;;;;;10.05;1.55;;;;;;;17.93;44.37;101709.91;6164110;23;20007;-38
2022/09/17 15:08:20;;;;;;;12.07;1.60;;;;;;;18.63;43.07;101705.19;6164259;23;20175;-37
2022/09/17 15:10:55;;;;;;;13.30;1.65;;;;;;;18.17;43.54;101705.41;6163620;23;20008;-38
2022/09/17 15:13:37;;;;;;;12.35;1.50;;;;;;;17.89;44.57;101716.06;6163903;23;20001;-38
2022/09/17 15:16:17;;;;;;;11.55;1.48;;;;;;;17.91;44.48;101715.19;6159064;23;20646;-38
2022/09/17 15:18:53;;;;;;;9.07;1.40;;;;;;;17.78;44.03;101709.06;6157481;23;20040;-36
2022/09/17 15:21:39;;;;;;;8.13;1.52;;;;;;;18.30;44.36;101713.28;6161943;23;20443;-37
2022/09/17 15:24:42;;;;;;;10.93;1.60;;;;;;;17.93;44.73;101718.69;6167861;23;20000;-36
2022/09/17 15:27:22;;;;;;;10.23;1.60;;;;;;;18.09;44.24;101717.75;6161433;22;20027;-36
2022/09/17 15:30:12;;;;;;;16.38;1.65;;;;;;;18.05;43.70;101715.16;6151176;22;20015;-37
2022/09/17 15:32:42;;;;;;;6.90;1.15;;;;;;;18.01;43.09;101702.84;6161585;23;20019;-36
2022/09/17 15:35:14;;;;;;;9.48;1.52;;;;;;;18.21;42.62;101706.28;6171402;23;20961;-36
2022/09/17 15:38:06;;;;;;;8.07;1.60;;;;;;;18.53;43.47;101698.19;6165275;23;20013;-37
2022/09/17 15:40:32;;;;;;;8.80;1.58;;;;;;;18.34;45.17;101705.31;6167945;23;20083;-38
2022/09/17 15:43:03;;;;;;;8.80;1.50;;;;;;;18.40;44.31;101704.41;6171745;23;20013;-36
2022/09/17 15:45:30;;;;;;;10.82;1.60;;;;;;;17.84;45.42;101721.38;6161191;23;20436;-38
2022/09/17 15:47:59;;;;;;;11.07;1.65;;;;;;;17.97;46.82;101717.81;6157504;23;20004;-37
2022/09/17 15:50:29;;;;;;;9.52;1.52;;;;;;;17.95;47.02;101722.19;6157976;23;20096;-37
2022/09/17 15:53:09;;;;;;;6.30;1.05;;;;;;;17.15;45.51;101733.72;6172852;23;20012;-37
2022/09/17 15:55:39;;;;;;;5.25;1.00;;;;;;;16.85;48.39;101753.03;6165712;23;20075;-37
2022/09/17 15:58:20;;;;;;;14.80;2.25;;;;;;;15.39;64.50;101781.19;6164238;22;20074;-43
2022/09/17 16:00:46;;;;;;;12.55;1.75;;;;;;;15.09;66.32;101767.78;6166204;23;20382;-40
2022/09/17 16:03:39;;;;;;;8.13;1.40;;;;;;;14.92;69.08;101767.63;6169660;23;20019;-42
2022/09/17 16:06:17;;;;;;;13.23;1.40;;;;;;;15.12;69.37;101761.69;6162380;23;20027;-40
2022/09/17 16:08:46;;;;;;;8.40;1.52;;;;;;;15.55;68.62;101753.31;6159895;23;20557;-41
2022/09/17 16:11:14;;;;;;;9.65;1.35;;;;;;;15.31;68.44;101751.34;6168341;23;20015;-39
2022/09/17 16:13:40;;;;;;;8.38;1.48;;;;;;;15.27;67.66;101740.78;6161159;23;20290;-40
2022/09/17 16:16:07;;;;;;;7.78;1.40;;;;;;;15.20;67.00;101737.22;6152347;23;20091;-43
2022/09/17 16:18:33;;;;;;;8.38;1.10;;;;;;;15.04;66.45;101735.38;6167521;23;20043;-38
2022/09/17 16:20:58;;;;;;;10.93;1.00;;;;;;;15.24;68.21;101735.53;6174037;23;20004;-40
2022/09/17 16:23:24;;;;;;;6.72;1.20;;;;;;;15.15;68.82;101730.19;6170298;23;20008;-43
2022/09/17 16:25:50;;;;;;;8.93;2.20;;;;;;;15.37;68.56;101730.34;6157963;23;20016;-40
2022/09/17 16:28:18;;;;;;;3.25;0.95;;;;;;;15.49;68.44;101731.34;6166760;22;20012;-39
2022/09/17 16:30:46;;;;;;;7.57;1.20;;;;;;;15.43;67.42;101729.53;6166987;23;20550;-39
2022/09/17 16:33:13;;;;;;;9.60;1.10;;;;;;;15.65;67.35;101733.22;6152659;23;20032;-39
2022/09/17 16:35:39;;;;;;;5.50;0.90;;;;;;;15.77;67.48;101735.94;6191292;23;20408;-39
2022/09/17 16:38:06;;;;;;;7.32;1.02;;;;;;;15.36;67.68;101740.88;6143990;23;20367;-39
2022/09/17 16:40:32;;;;;;;9.63;1.30;;;;;;;15.16;69.15;101755.59;6166771;23;20360;-39
2022/09/17 16:43:02;;;;;;;5.32;1.00;;;;;;;15.41;69.08;101741.78;6161955;23;20016;-39
2022/09/17 16:45:28;;;;;;;3.90;0.73;;;;;;;15.38;69.18;101745.25;6165249;22;20091;-40
2022/09/17 16:47:54;;;;;;;5.57;1.10;;;;;;;15.13;69.84;101731.91;6148372;23;20096;-40
2022/09/17 16:50:19;;;;;;;4.82;0.70;;;;;;;15.46;68.70;101740.06;6167599;23;20131;-42
2022/09/17 16:52:46;;;;;;;4.55;0.93;;;;;;;15.32;68.40;101728.56;6161954;23;20111;-40
2022/09/17 16:55:13;;;;;;;6.45;0.98;;;;;;;15.22;68.92;101724.13;6160096;23;20608;-40
2022/09/17 16:57:39;;;;;;;6.53;0.90;;;;;;;15.44;68.78;101726.91;6167285;23;20013;-38
2022/09/17 17:00:10;;;;;;;8.43;1.17;;;;;;;15.19;70.05;101761.75;6142788;23;20666;-40
2022/09/17 17:02:35;;;;;;;7.60;1.33;;;;;;;14.87;71.83;101765.84;6170115;23;20043;-38
2022/09/17 17:05:00;;;;;;;9.48;1.23;;;;;;;14.70;72.08;101747.25;6162841;23;20012;-41
2022/09/17 17:07:25;;;;;;;8.05;1.40;;;;;;;14.67;72.59;101749.00;6165609;23;20020;-38
2022/09/17 17:09:51;;;;;;;7.78;1.42;;;;;;;14.89;71.71;101741.34;6157931;23;20009;-40
2022/09/17 17:12:16;;;;;;;8.98;1.60;;;;;;;14.81;72.21;101737.78;6162373;23;20046;-39
2022/09/17 17:14:43;;;;;;;8.80;1.20;;;;;;;15.09;71.47;101731.03;6160012;23;20951;-40
2022/09/17 17:17:09;;;;;;;8.85;1.52;;;;;;;15.37;70.23;101733.00;6184023;23;20506;-40
2022/09/17 17:19:35;;;;;;;9.93;1.33;;;;;;;15.22;70.66;101735.50;6156852;23;20020;-40
2022/09/17 17:22:01;;;;;;;8.40;1.40;;;;;;;15.23;70.25;101732.03;6160211;22;20440;-41
2022/09/17 17:24:26;;;;;;;9.15;1.60;;;;;;;15.00;70.84;101730.97;6164191;23;20120;-39
2022/09/17 17:26:51;;;;;;;9.93;1.50;;;;;;;15.02;71.65;101732.72;6163643;23;20151;-42
2022/09/17 17:29:17;;;;;;;7.85;1.33;;;;;;;15.08;71.19;101737.13;6164026;23;20114;-39
2022/09/17 17:31:43;;;;;;;8.10;1.20;;;;;;;15.25;70.21;101738.16;6160480;23;20445;-40
2022/09/17 17:34:08;;;;;;;7.38;1.20;;;;;;;15.35;70.01;101745.25;6147548;23;20639;-40
2022/09/17 17:36:34;;;;;;;4.68;1.08;;;;;;;15.28;70.73;101732.94;6124542;23;20578;-41
2022/09/17 17:39:00;;;;;;;12.77;1.30;;;;;;;15.24;70.71;101741.66;6125621;23;20004;-40
2022/09/17 17:41:27;;;;;;;8.68;1.33;;;;;;;15.10;71.16;101739.78;6179170;22;20017;-41
2022/09/17 17:43:54;;;;;;;9.05;1.40;;;;;;;14.98;71.55;101735.31;6163758;23;20036;-40
2022/09/17 17:46:19;;;;;;;6.22;1.00;;;;;;;14.91;71.77;101739.63;6146530;23;20348;-39
2022/09/17 17:48:44;;;;;;;12.63;1.20;;;;;;;14.68;73.11;101735.00;6169465;23;20051;-40
2022/09/17 17:51:10;;;;;;;11.80;1.30;;;;;;;14.70;72.87;101736.78;6183760;23;20180;-39
2022/09/17 17:53:36;;;;;;;10.65;4.95;;;;;;;14.84;72.40;101732.53;6149646;22;20314;-39
2022/09/17 17:56:04;;;;;;;10.75;2.70;;;;;;;15.06;71.84;101733.63;6158288;23;20023;-39
2022/09/17 17:58:30;;;;;;;11.38;3.67;;;;;;;15.12;71.82;101749.44;6165150;22;20013;-39
2022/09/17 18:00:55;;;;;;;4.45;1.33;;;;;;;14.93;70.66;101748.41;6162459;23;20005;-38
2022/09/17 18:03:24;;;;;;;3.97;0.80;;;;;;;14.53;66.82;101752.34;6167860;23;20013;-46
2022/09/17 18:05:51;;;;;;;4.60;0.80;;;;;;;14.58;66.38;101749.75;6160065;23;20436;-37
2022/09/17 18:08:16;;;;;;;6.72;0.93;;;;;;;14.78;66.39;101739.47;6167915;23;20448;-38
2022/09/17 18:10:49;;;;;;;9.50;1.13;;;;;;;14.69;66.96;101737.66;6158107;23;20018;-40
2022/09/17 18:13:14;;;;;;;6.10;1.20;;;;;;;14.61;66.87;101737.56;6175500;23;20008;-38
2022/09/17 18:15:49;;;;;;;5.28;1.20;;;;;;;14.71;66.33;101729.78;6163716;23;20689;-39
2022/09/17 18:18:14;;;;;;;7.93;1.50;;;;;;;14.58;67.54;101723.50;6143150;23;20027;-37
2022/09/17 18:20:40;;;;;;;5.75;1.50;;;;;;;14.74;67.36;101725.47;6171828;22;20451;-36
2022/09/17 18:23:05;;;;;;;4.63;1.80;;;;;;;14.72;67.69;101721.94;6167062;23;20051;-37
2022/09/17 18:25:31;;;;;;;12.90;2.38;;;;;;;14.70;68.87;101722.78;6171590;23;20432;-38
2022/09/17 18:27:58;;;;;;;5.20;1.27;;;;;;;14.85;68.27;101731.69;6170908;23;20008;-38
2022/09/17 18:30:24;;;;;;;6.53;1.90;;;;;;;14.93;68.85;101748.41;6154948;23;20515;-38
2022/09/17 18:32:51;;;;;;;11.90;1.77;;;;;;;14.56;71.29;101769.88;6163352;23;20086;-39
2022/09/17 18:35:18;;;;;;;8.82;1.50;;;;;;;14.55;72.44;101761.13;6157402;23;20014;-41
2022/09/17 18:37:44;;;;;;;9.70;1.65;;;;;;;14.54;72.88;101759.34;6166280;23;20095;-38
2022/09/17 18:40:09;;;;;;;7.88;1.52;;;;;;;14.84;71.68;101768.41;6153830;22;20080;-39
2022/09/17 18:42:35;;;;;;;10.40;2.35;;;;;;;14.64;71.56;101760.31;6168700;23;20017;-40
2022/09/17 18:45:00;;;;;;;16.95;6.20;;;;;;;14.61;71.82;101750.69;6168097;23;20229;-38
2022/09/17 18:47:25;;;;;;;9.98;5.13;;;;;;;14.81;70.76;101756.16;6167061;23;20021;-38
2022/09/17 18:49:51;;;;;;;15.93;2.47;;;;;;;14.73;71.02;101754.31;6159925;23;20043;-41
2022/09/17 18:52:16;;;;;;;10.63;2.20;;;;;;;14.64;71.01;101760.31;6159560;23;20012;-38
2022/09/17 18:54:44;;;;;;;8.20;1.50;;;;;;;14.40;70.55;101762.66;6168115;22;20008;-39
2022/09/17 18:57:10;;;;;;;6.40;1.20;;;;;;;14.49;70.72;101763.69;6165031;23;20012;-38
2022/09/17 18:59:36;;;;;;;7.57;1.10;;;;;;;14.44;70.24;101772.38;6161707;23;20017;-40
2022/09/17 19:02:02;;;;;;;6.75;1.30;;;;;;;14.59;69.76;101773.41;6157715;23;20008;-40
2022/09/17 19:04:28;;;;;;;8.23;1.17;;;;;;;14.40;69.60;101774.03;6161496;23;20040;-38
2022/09/17 19:06:53;;;;;;;13.40;4.78;;;;;;;14.32;69.07;101770.44;6158246;23;20008;-39
2022/09/17 19:09:19;;;;;;;4.93;1.40;;;;;;;14.52;68.82;101765.44;6163222;23;20005;-40
2022/09/17 19:11:44;;;;;;;7.88;1.80;;;;;;;14.46;69.28;101760.13;6160159;22;20483;-38
2022/09/17 19:14:10;;;;;;;8.35;1.33;;;;;;;14.58;69.33;101755.00;6157664;23;20473;-41
2022/09/17 19:16:35;;;;;;;8.90;1.55;;;;;;;14.53;69.84;101760.22;6160565;23;20032;-39
2022/09/17 19:19:01;;;;;;;8.40;1.20;;;;;;;14.94;68.79;101755.38;6163625;23;20037;-38
2022/09/17 19:21:26;;;;;;;8.30;1.20;;;;;;;15.02;69.23;101755.47;6168911;23;20005;-39
2022/09/17 19:23:52;;;;;;;10.40;1.52;;;;;;;15.05;69.30;101759.88;6159601;22;20070;-38
2022/09/17 19:26:24;;;;;;;8.15;1.50;;;;;;;15.02;69.98;101771.22;6159996;23;20425;-39
2022/09/17 19:28:59;;;;;;;10.02;1.70;;;;;;;14.95;70.40;101803.53;6155193;23;20013;-38
2022/09/17 19:31:24;;;;;;;;;;;;;;;14.64;70.78;101796.22;6168044;23;20136;-41
2022/09/17 19:33:50;;;;;;;7.22;1.30;;;;;;;14.54;69.98;101785.59;6160719;23;19999;-39